sensor_id;sensor_type;location;lat;lon;timestamp;pressure;altitude;pressure_sealevel;temperature;humidity
7668;BME280;3876;42.204;24.686;2022-12-18T00:02:07;99987.63;;;10.17;100.00
7668;BME280;3876;42.204;24.686;2022-12-18T00:04:34;99995.13;;;10.27;100.00
7668;BME280;3876;42.204;24.686;2022-12-18T00:07:00;100001.84;;;10.31;100.00
7668;BME280;3876;42.204;24.686;2022-12-18T00:09:28;100006.97;;;10.31;100.00
7668;BME280;3876;42.204;24.686;2022-12-18T00:11:55;100012.16;;;10.30;100.00
7668;BME280;3876;42.204;24.686;2022-12-18T00:14:21;100031.78;;;10.29;100.00
7668;BME280;3876;42.204;24.686;2022-12-18T00:16:48;100030.09;;;10.28;100.00
7668;BME280;3876;42.204;24.686;2022-12-18T00:19:16;100035.22;;;10.28;100.00
7668;BME280;3876;42.204;24.686;2022-12-18T00:21:43;100039.53;;;10.26;100.00
7668;BME280;3876;42.204;24.686;2022-12-18T00:24:11;100031.09;;;10.21;100.00
7668;BME280;3876;42.204;24.686;2022-12-18T00:26:38;100042.16;;;10.23;100.00
7668;BME280;3876;42.204;24.686;2022-12-18T00:29:07;100048.22;;;10.19;100.00
7668;BME280;3876;42.204;24.686;2022-12-18T00:31:34;100047.41;;;10.17;100.00
7668;BME280;3876;42.204;24.686;2022-12-18T00:34:02;100052.59;;;10.14;100.00
7668;BME280;3876;42.204;24.686;2022-12-18T00:36:32;100054.25;;;10.15;100.00
7668;BME280;3876;42.204;24.686;2022-12-18T00:39:01;100058.56;;;10.12;100.00
7668;BME280;3876;42.204;24.686;2022-12-18T00:41:28;100069.66;;;10.12;100.00
7668;BME280;3876;42.204;24.686;2022-12-18T00:44:14;100066.22;;;10.13;100.00
7668;BME280;3876;42.204;24.686;2022-12-18T00:46:42;100062.84;;;10.14;100.00
7668;BME280;3876;42.204;24.686;2022-12-18T00:49:13;100071.34;;;10.13;100.00
7668;BME280;3876;42.204;24.686;2022-12-18T00:51:41;100079.88;;;10.17;100.00
7668;BME280;3876;42.204;24.686;2022-12-18T00:54:08;100069.56;;;10.18;100.00
7668;BME280;3876;42.204;24.686;2022-12-18T00:56:36;100073.03;;;10.17;100.00
7668;BME280;3876;42.204;24.686;2022-12-18T00:59:04;100068.75;;;10.16;100.00
7668;BME280;3876;42.204;24.686;2022-12-18T01:01:31;100078.09;;;10.20;100.00
7668;BME280;3876;42.204;24.686;2022-12-18T01:04:02;100084.94;;;10.18;100.00
7668;BME280;3876;42.204;24.686;2022-12-18T01:06:29;100071.34;;;10.16;100.00
7668;BME280;3876;42.204;24.686;2022-12-18T01:08:57;100058.53;;;10.15;100.00
7668;BME280;3876;42.204;24.686;2022-12-18T01:11:24;100061.09;;;10.15;100.00
7668;BME280;3876;42.204;24.686;2022-12-18T01:13:52;100070.41;;;10.20;100.00
7668;BME280;3876;42.204;24.686;2022-12-18T01:16:19;100077.25;;;10.20;100.00
7668;BME280;3876;42.204;24.686;2022-12-18T01:18:45;100065.38;;;10.13;100.00
7668;BME280;3876;42.204;24.686;2022-12-18T01:21:14;100083.34;;;10.14;100.00
7668;BME280;3876;42.204;24.686;2022-12-18T01:23:45;100074.84;;;10.09;100.00
7668;BME280;3876;42.204;24.686;2022-12-18T01:26:14;100087.69;;;10.08;100.00
7668;BME280;3876;42.204;24.686;2022-12-18T01:28:43;100068.16;;;9.99;100.00
7668;BME280;3876;42.204;24.686;2022-12-18T01:31:15;100088.59;;;10.02;100.00
7668;BME280;3876;42.204;24.686;2022-12-18T01:33:43;100076.75;;;9.98;100.00
7668;BME280;3876;42.204;24.686;2022-12-18T01:36:15;100081.03;;;9.97;100.00
7668;BME280;3876;42.204;24.686;2022-12-18T01:38:42;100089.56;;;9.98;100.00
7668;BME280;3876;42.204;24.686;2022-12-18T01:41:09;100087.06;;;9.95;100.00
7668;BME280;3876;42.204;24.686;2022-12-18T01:43:49;100084.44;;;9.96;100.00
7668;BME280;3876;42.204;24.686;2022-12-18T01:46:17;100083.66;;;9.93;100.00
7668;BME280;3876;42.204;24.686;2022-12-18T01:48:47;100076.81;;;9.92;100.00
7668;BME280;3876;42.204;24.686;2022-12-18T01:51:14;100090.53;;;9.91;100.00
7668;BME280;3876;42.204;24.686;2022-12-18T01:53:42;100088.88;;;9.87;100.00
7668;BME280;3876;42.204;24.686;2022-12-18T01:56:13;100099.97;;;9.87;100.00
7668;BME280;3876;42.204;24.686;2022-12-18T01:58:50;100106.69;;;9.93;100.00
7668;BME280;3876;42.204;24.686;2022-12-18T02:01:20;100113.47;;;9.95;100.00
7668;BME280;3876;42.204;24.686;2022-12-18T02:03:48;100107.59;;;9.90;100.00
7668;BME280;3876;42.204;24.686;2022-12-18T02:06:17;100112.59;;;9.98;100.00
7668;BME280;3876;42.204;24.686;2022-12-18T02:08:58;100107.50;;;9.98;100.00
7668;BME280;3876;42.204;24.686;2022-12-18T02:11:38;100107.50;;;9.98;100.00
7668;BME280;3876;42.204;24.686;2022-12-18T02:14:17;100077.03;;;9.80;100.00
7668;BME280;3876;42.204;24.686;2022-12-18T02:16:50;100091.50;;;9.84;100.00
7668;BME280;3876;42.204;24.686;2022-12-18T02:19:33;100106.75;;;9.91;100.00
7668;BME280;3876;42.204;24.686;2022-12-18T02:22:16;100111.13;;;9.85;100.00
7668;BME280;3876;42.204;24.686;2022-12-18T02:24:55;100102.69;;;9.77;100.00
7668;BME280;3876;42.204;24.686;2022-12-18T02:27:26;100117.91;;;9.86;100.00
7668;BME280;3876;42.204;24.686;2022-12-18T02:29:55;100100.13;;;9.77;100.00
7668;BME280;3876;42.204;24.686;2022-12-18T02:32:27;100106.03;;;9.82;100.00
7668;BME280;3876;42.204;24.686;2022-12-18T02:34:56;100116.13;;;9.91;100.00
7668;BME280;3876;42.204;24.686;2022-12-18T02:37:24;100110.13;;;9.92;100.00
7668;BME280;3876;42.204;24.686;2022-12-18T02:39:55;100109.25;;;9.93;100.00
7668;BME280;3876;42.204;24.686;2022-12-18T02:42:25;100107.72;;;9.83;100.00
7668;BME280;3876;42.204;24.686;2022-12-18T02:44:55;100111.06;;;9.88;100.00
7668;BME280;3876;42.204;24.686;2022-12-18T02:47:24;100111.00;;;9.91;100.00
7668;BME280;3876;42.204;24.686;2022-12-18T02:50:00;100111.81;;;9.94;100.00
7668;BME280;3876;42.204;24.686;2022-12-18T02:52:31;100112.69;;;9.92;100.00
7668;BME280;3876;42.204;24.686;2022-12-18T02:55:11;100113.53;;;9.94;100.00
7668;BME280;3876;42.204;24.686;2022-12-18T02:57:45;100121.22;;;9.94;100.00
7668;BME280;3876;42.204;24.686;2022-12-18T03:00:16;100118.59;;;9.97;100.00
7668;BME280;3876;42.204;24.686;2022-12-18T03:02:47;100117.72;;;9.98;100.00
7668;BME280;3876;42.204;24.686;2022-12-18T03:05:17;100114.28;;;9.99;100.00
7668;BME280;3876;42.204;24.686;2022-12-18T03:07:50;100120.25;;;10.01;100.00
7668;BME280;3876;42.204;24.686;2022-12-18T03:10:23;100121.09;;;10.00;100.00
7668;BME280;3876;42.204;24.686;2022-12-18T03:12:59;100125.31;;;10.02;100.00
7668;BME280;3876;42.204;24.686;2022-12-18T03:15:30;100121.09;;;10.00;100.00
7668;BME280;3876;42.204;24.686;2022-12-18T03:18:03;100127.06;;;10.00;100.00
7668;BME280;3876;42.204;24.686;2022-12-18T03:20:33;100130.50;;;10.01;100.00
7668;BME280;3876;42.204;24.686;2022-12-18T03:23:06;100121.09;;;10.00;100.00
7668;BME280;3876;42.204;24.686;2022-12-18T03:25:39;100108.50;;;9.86;100.00
7668;BME280;3876;42.204;24.686;2022-12-18T03:28:14;100120.25;;;9.99;100.00
7668;BME280;3876;42.204;24.686;2022-12-18T03:30:44;100128.00;;;9.96;100.00
7668;BME280;3876;42.204;24.686;2022-12-18T03:33:16;100122.91;;;9.93;100.00
7668;BME280;3876;42.204;24.686;2022-12-18T03:35:45;100134.03;;;9.92;100.00
7668;BME280;3876;42.204;24.686;2022-12-18T03:38:13;100146.88;;;9.91;100.00
7668;BME280;3876;42.204;24.686;2022-12-18T03:40:47;100148.59;;;9.89;100.00
7668;BME280;3876;42.204;24.686;2022-12-18T03:43:21;100155.44;;;9.88;100.00
7668;BME280;3876;42.204;24.686;2022-12-18T03:45:56;100160.59;;;9.87;100.00
7668;BME280;3876;42.204;24.686;2022-12-18T03:48:29;100163.25;;;9.79;100.00
7668;BME280;3876;42.204;24.686;2022-12-18T03:51:03;100161.59;;;9.77;100.00
7668;BME280;3876;42.204;24.686;2022-12-18T03:53:38;100174.44;;;9.74;100.00
7668;BME280;3876;42.204;24.686;2022-12-18T03:56:06;100173.66;;;9.67;100.00
7668;BME280;3876;42.204;24.686;2022-12-18T03:58:38;100172.88;;;9.65;100.00
7668;BME280;3876;42.204;24.686;2022-12-18T04:01:12;100169.53;;;9.59;100.00
7668;BME280;3876;42.204;24.686;2022-12-18T04:03:40;100157.72;;;9.48;100.00
7668;BME280;3876;42.204;24.686;2022-12-18T04:06:10;100172.06;;;9.60;100.00
7668;BME280;3876;42.204;24.686;2022-12-18T04:08:38;100174.63;;;9.62;100.00
7668;BME280;3876;42.204;24.686;2022-12-18T04:11:05;100189.94;;;9.65;100.00
7668;BME280;3876;42.204;24.686;2022-12-18T04:13:36;100184.84;;;9.62;100.00
7668;BME280;3876;42.204;24.686;2022-12-18T04:16:03;100198.47;;;9.64;100.00
7668;BME280;3876;42.204;24.686;2022-12-18T04:18:30;100194.16;;;9.67;100.00
7668;BME280;3876;42.204;24.686;2022-12-18T04:20:57;100201.88;;;9.66;100.00
7668;BME280;3876;42.204;24.686;2022-12-18T04:23:24;100202.69;;;9.68;100.00
7668;BME280;3876;42.204;24.686;2022-12-18T04:25:51;100206.94;;;9.69;100.00
7668;BME280;3876;42.204;24.686;2022-12-18T04:28:17;100204.41;;;9.67;100.00
7668;BME280;3876;42.204;24.686;2022-12-18T04:30:48;100203.50;;;9.70;100.00
7668;BME280;3876;42.204;24.686;2022-12-18T04:33:18;100205.25;;;9.68;100.00
7668;BME280;3876;42.204;24.686;2022-12-18T04:35:45;100203.53;;;9.67;100.00
7668;BME280;3876;42.204;24.686;2022-12-18T04:38:12;100202.72;;;9.63;100.00
7668;BME280;3876;42.204;24.686;2022-12-18T04:40:39;100192.59;;;9.57;100.00
7668;BME280;3876;42.204;24.686;2022-12-18T04:43:06;100200.25;;;9.59;100.00
7668;BME280;3876;42.204;24.686;2022-12-18T04:45:33;100203.72;;;9.55;100.00
7668;BME280;3876;42.204;24.686;2022-12-18T04:48:02;100201.28;;;9.44;100.00
7668;BME280;3876;42.204;24.686;2022-12-18T04:50:29;100214.91;;;9.47;100.00
7668;BME280;3876;42.204;24.686;2022-12-18T04:52:57;100224.31;;;9.44;100.00
7668;BME280;3876;42.204;24.686;2022-12-18T04:55:25;100226.06;;;9.40;100.00
7668;BME280;3876;42.204;24.686;2022-12-18T04:57:52;100238.09;;;9.35;100.00
7668;BME280;3876;42.204;24.686;2022-12-18T05:00:20;100233.00;;;9.31;100.00
7668;BME280;3876;42.204;24.686;2022-12-18T05:02:46;100237.31;;;9.30;100.00
7668;BME280;3876;42.204;24.686;2022-12-18T05:05:15;100245.03;;;9.24;100.00
7668;BME280;3876;42.204;24.686;2022-12-18T05:07:42;100243.34;;;9.23;100.00
7668;BME280;3876;42.204;24.686;2022-12-18T05:10:09;100247.59;;;9.26;100.00
7668;BME280;3876;42.204;24.686;2022-12-18T05:12:36;100256.16;;;9.23;100.00
7668;BME280;3876;42.204;24.686;2022-12-18T05:15:23;100253.59;;;9.23;100.00
7668;BME280;3876;42.204;24.686;2022-12-18T05:17:50;100265.56;;;9.18;100.00
7668;BME280;3876;42.204;24.686;2022-12-18T05:20:18;100271.50;;;9.22;100.00
7668;BME280;3876;42.204;24.686;2022-12-18T05:22:45;100276.63;;;9.22;100.00
7668;BME280;3876;42.204;24.686;2022-12-18T05:25:12;100284.25;;;9.26;100.00
7668;BME280;3876;42.204;24.686;2022-12-18T05:27:39;100284.31;;;9.20;100.00
7668;BME280;3876;42.204;24.686;2022-12-18T05:30:07;100292.81;;;9.22;100.00
7668;BME280;3876;42.204;24.686;2022-12-18T05:32:34;100297.91;;;9.25;100.00
7668;BME280;3876;42.204;24.686;2022-12-18T05:35:01;100297.03;;;9.25;100.00
7668;BME280;3876;42.204;24.686;2022-12-18T05:37:29;100303.84;;;9.27;100.00
7668;BME280;3876;42.204;24.686;2022-12-18T05:39:56;100308.13;;;9.27;100.00
7668;BME280;3876;42.204;24.686;2022-12-18T05:42:23;100309.84;;;9.25;100.00
7668;BME280;3876;42.204;24.686;2022-12-18T05:44:49;100316.69;;;9.23;100.00
7668;BME280;3876;42.204;24.686;2022-12-18T05:47:16;100318.41;;;9.22;100.00
7668;BME280;3876;42.204;24.686;2022-12-18T05:49:43;100328.63;;;9.22;100.00
7668;BME280;3876;42.204;24.686;2022-12-18T05:52:10;100330.34;;;9.23;100.00
7668;BME280;3876;42.204;24.686;2022-12-18T05:54:38;100333.75;;;9.22;100.00
7668;BME280;3876;42.204;24.686;2022-12-18T05:57:05;100332.03;;;9.21;100.00
7668;BME280;3876;42.204;24.686;2022-12-18T05:59:31;100321.88;;;9.17;100.00
7668;BME280;3876;42.204;24.686;2022-12-18T06:01:58;100335.44;;;9.23;100.00
7668;BME280;3876;42.204;24.686;2022-12-18T06:04:26;100344.84;;;9.23;100.00
7668;BME280;3876;42.204;24.686;2022-12-18T06:06:53;100347.38;;;9.21;100.00
7668;BME280;3876;42.204;24.686;2022-12-18T06:09:20;100347.38;;;9.21;100.00
7668;BME280;3876;42.204;24.686;2022-12-18T06:11:48;100354.22;;;9.24;100.00
7668;BME280;3876;42.204;24.686;2022-12-18T06:14:15;100354.25;;;9.21;100.00
7668;BME280;3876;42.204;24.686;2022-12-18T06:16:42;100356.78;;;9.24;100.00
7668;BME280;3876;42.204;24.686;2022-12-18T06:19:14;100350.88;;;9.17;100.00
7668;BME280;3876;42.204;24.686;2022-12-18T06:21:41;100355.13;;;9.15;100.00
7668;BME280;3876;42.204;24.686;2022-12-18T06:24:08;100352.59;;;9.14;100.00
7668;BME280;3876;42.204;24.686;2022-12-18T06:26:37;100376.34;;;9.26;100.00
7668;BME280;3876;42.204;24.686;2022-12-18T06:29:05;100384.00;;;9.29;100.00
7668;BME280;3876;42.204;24.686;2022-12-18T06:31:32;100383.16;;;9.29;100.00
7668;BME280;3876;42.204;24.686;2022-12-18T06:33:59;100390.84;;;9.30;100.00
7668;BME280;3876;42.204;24.686;2022-12-18T06:36:28;100386.53;;;9.32;100.00
7668;BME280;3876;42.204;24.686;2022-12-18T06:38:56;100391.63;;;9.35;100.00
7668;BME280;3876;42.204;24.686;2022-12-18T06:41:23;100394.22;;;9.31;100.00
7668;BME280;3876;42.204;24.686;2022-12-18T06:43:50;100404.44;;;9.32;100.00
7668;BME280;3876;42.204;24.686;2022-12-18T06:46:18;100408.72;;;9.33;100.00
7668;BME280;3876;42.204;24.686;2022-12-18T06:48:47;100403.63;;;9.30;100.00
7668;BME280;3876;42.204;24.686;2022-12-18T06:51:17;100417.25;;;9.32;100.00
7668;BME280;3876;42.204;24.686;2022-12-18T06:53:43;100428.31;;;9.33;100.00
7668;BME280;3876;42.204;24.686;2022-12-18T06:56:10;100422.44;;;9.23;100.00
7668;BME280;3876;42.204;24.686;2022-12-18T06:58:37;100408.88;;;9.12;100.00
7668;BME280;3876;42.204;24.686;2022-12-18T07:01:06;100442.88;;;9.26;100.00
7668;BME280;3876;42.204;24.686;2022-12-18T07:03:34;100448.81;;;9.28;100.00
7668;BME280;3876;42.204;24.686;2022-12-18T07:06:02;100445.44;;;9.26;100.00
7668;BME280;3876;42.204;24.686;2022-12-18T07:08:29;100453.16;;;9.23;100.00
7668;BME280;3876;42.204;24.686;2022-12-18T07:10:56;100446.31;;;9.22;100.00
7668;BME280;3876;42.204;24.686;2022-12-18T07:13:22;100447.16;;;9.26;100.00
7668;BME280;3876;42.204;24.686;2022-12-18T07:15:49;100448.84;;;9.27;100.00
7668;BME280;3876;42.204;24.686;2022-12-18T07:18:16;100456.50;;;9.28;100.00
7668;BME280;3876;42.204;24.686;2022-12-18T07:20:44;100444.63;;;9.21;100.00
7668;BME280;3876;42.204;24.686;2022-12-18T07:23:11;100462.44;;;9.33;100.00
7668;BME280;3876;42.204;24.686;2022-12-18T07:25:38;100469.28;;;9.33;100.00
7668;BME280;3876;42.204;24.686;2022-12-18T07:28:05;100460.78;;;9.25;100.00
7668;BME280;3876;42.204;24.686;2022-12-18T07:30:32;100462.47;;;9.30;100.00
7668;BME280;3876;42.204;24.686;2022-12-18T07:32:58;100475.25;;;9.27;100.00
7668;BME280;3876;42.204;24.686;2022-12-18T07:35:26;100477.81;;;9.30;100.00
7668;BME280;3876;42.204;24.686;2022-12-18T07:37:54;100476.06;;;9.34;100.00
7668;BME280;3876;42.204;24.686;2022-12-18T07:40:21;100468.38;;;9.35;100.00
7668;BME280;3876;42.204;24.686;2022-12-18T07:42:48;100476.06;;;9.37;100.00
7668;BME280;3876;42.204;24.686;2022-12-18T07:45:14;100476.88;;;9.40;100.00
7668;BME280;3876;42.204;24.686;2022-12-18T07:47:41;100476.03;;;9.38;100.00
7668;BME280;3876;42.204;24.686;2022-12-18T07:50:08;100478.59;;;9.38;100.00
7668;BME280;3876;42.204;24.686;2022-12-18T07:52:35;100464.16;;;9.31;100.00
7668;BME280;3876;42.204;24.686;2022-12-18T07:55:04;100492.22;;;9.42;100.00
7668;BME280;3876;42.204;24.686;2022-12-18T07:57:31;100496.47;;;9.44;100.00
7668;BME280;3876;42.204;24.686;2022-12-18T07:59:58;100501.59;;;9.43;100.00
7668;BME280;3876;42.204;24.686;2022-12-18T08:02:25;100498.19;;;9.42;100.00
7668;BME280;3876;42.204;24.686;2022-12-18T08:04:51;100505.78;;;9.52;100.00
7668;BME280;3876;42.204;24.686;2022-12-18T08:07:18;100510.09;;;9.48;100.00
7668;BME280;3876;42.204;24.686;2022-12-18T08:09:45;100527.97;;;9.56;100.00
7668;BME280;3876;42.204;24.686;2022-12-18T08:12:13;100517.69;;;9.59;100.00
7668;BME280;3876;42.204;24.686;2022-12-18T08:14:40;100527.06;;;9.58;100.00
7668;BME280;3876;42.204;24.686;2022-12-18T08:17:06;100521.03;;;9.64;100.00
7668;BME280;3876;42.204;24.686;2022-12-18T08:19:33;100532.13;;;9.66;100.00
7668;BME280;3876;42.204;24.686;2022-12-18T08:22:00;100531.25;;;9.67;100.00
7668;BME280;3876;42.204;24.686;2022-12-18T08:24:27;100538.09;;;9.68;100.00
7668;BME280;3876;42.204;24.686;2022-12-18T08:26:54;100532.13;;;9.69;100.00
7668;BME280;3876;42.204;24.686;2022-12-18T08:29:23;100536.34;;;9.70;100.00
7668;BME280;3876;42.204;24.686;2022-12-18T08:31:50;100531.22;;;9.70;100.00
7668;BME280;3876;42.204;24.686;2022-12-18T08:34:17;100533.75;;;9.73;100.00
7668;BME280;3876;42.204;24.686;2022-12-18T08:36:44;100529.50;;;9.75;100.00
7668;BME280;3876;42.204;24.686;2022-12-18T08:39:10;100536.28;;;9.79;100.00
7668;BME280;3876;42.204;24.686;2022-12-18T08:41:37;100534.59;;;9.78;100.00
7668;BME280;3876;42.204;24.686;2022-12-18T08:44:04;100532.81;;;9.83;100.00
7668;BME280;3876;42.204;24.686;2022-12-18T08:46:49;100539.69;;;9.81;100.00
7668;BME280;3876;42.204;24.686;2022-12-18T08:49:16;100533.72;;;9.82;100.00
7668;BME280;3876;42.204;24.686;2022-12-18T08:51:43;100532.84;;;9.81;100.00
7668;BME280;3876;42.204;24.686;2022-12-18T08:54:11;100528.59;;;9.80;100.00
7668;BME280;3876;42.204;24.686;2022-12-18T08:56:38;100522.53;;;9.86;100.00
7668;BME280;3876;42.204;24.686;2022-12-18T08:59:05;100525.97;;;9.86;100.00
7668;BME280;3876;42.204;24.686;2022-12-18T09:01:32;100522.50;;;9.90;100.00
7668;BME280;3876;42.204;24.686;2022-12-18T09:04:00;100530.16;;;9.92;100.00
7668;BME280;3876;42.204;24.686;2022-12-18T09:06:27;100527.56;;;9.98;100.00
7668;BME280;3876;42.204;24.686;2022-12-18T09:08:54;100529.25;;;10.00;100.00
7668;BME280;3876;42.204;24.686;2022-12-18T09:11:22;100535.22;;;9.99;100.00
7668;BME280;3876;42.204;24.686;2022-12-18T09:13:49;100532.63;;;10.04;100.00
7668;BME280;3876;42.204;24.686;2022-12-18T09:16:16;100530.03;;;10.07;100.00
7668;BME280;3876;42.204;24.686;2022-12-18T09:18:43;100522.38;;;10.04;100.00
7668;BME280;3876;42.204;24.686;2022-12-18T09:21:13;100530.03;;;10.07;100.00
7668;BME280;3876;42.204;24.686;2022-12-18T09:23:41;100532.59;;;10.07;100.00
7668;BME280;3876;42.204;24.686;2022-12-18T09:26:08;100535.94;;;10.12;100.00
7668;BME280;3876;42.204;24.686;2022-12-18T09:28:35;100529.97;;;10.13;100.00
7668;BME280;3876;42.204;24.686;2022-12-18T09:31:04;100534.22;;;10.20;100.00
7668;BME280;3876;42.204;24.686;2022-12-18T09:33:32;100536.69;;;10.25;100.00
7668;BME280;3876;42.204;24.686;2022-12-18T09:36:01;100528.16;;;10.26;100.00
7668;BME280;3876;42.204;24.686;2022-12-18T09:38:29;100523.00;;;10.29;100.00
7668;BME280;3876;42.204;24.686;2022-12-18T09:41:00;100530.66;;;10.32;100.00
7668;BME280;3876;42.204;24.686;2022-12-18T09:43:34;100530.69;;;10.30;100.00
7668;BME280;3876;42.204;24.686;2022-12-18T09:46:05;100532.38;;;10.31;100.00
7668;BME280;3876;42.204;24.686;2022-12-18T09:48:35;100528.97;;;10.29;100.00
7668;BME280;3876;42.204;24.686;2022-12-18T09:51:11;100528.97;;;10.29;100.00
7668;BME280;3876;42.204;24.686;2022-12-18T09:53:41;100534.91;;;10.31;100.00
7668;BME280;3876;42.204;24.686;2022-12-18T09:56:16;100534.88;;;10.34;100.00
7668;BME280;3876;42.204;24.686;2022-12-18T09:58:47;100534.91;;;10.33;100.00
7668;BME280;3876;42.204;24.686;2022-12-18T10:01:21;100540.06;;;10.31;100.00
7668;BME280;3876;42.204;24.686;2022-12-18T10:03:51;100540.84;;;10.39;100.00
7668;BME280;3876;42.204;24.686;2022-12-18T10:06:23;100544.25;;;10.38;100.00
7668;BME280;3876;42.204;24.686;2022-12-18T10:08:56;100524.66;;;10.31;100.00
7668;BME280;3876;42.204;24.686;2022-12-18T10:11:37;100529.75;;;10.36;100.00
7668;BME280;3876;42.204;24.686;2022-12-18T10:14:13;100528.06;;;10.36;100.00
7668;BME280;3876;42.204;24.686;2022-12-18T10:16:50;100534.81;;;10.40;100.00
7668;BME280;3876;42.204;24.686;2022-12-18T10:19:32;100534.81;;;10.40;100.00
7668;BME280;3876;42.204;24.686;2022-12-18T10:22:11;100532.28;;;10.37;100.00
7668;BME280;3876;42.204;24.686;2022-12-18T10:24:45;100534.00;;;10.38;100.00
7668;BME280;3876;42.204;24.686;2022-12-18T10:27:16;100528.84;;;10.41;100.00
7668;BME280;3876;42.204;24.686;2022-12-18T10:29:43;100532.25;;;10.43;100.00
7668;BME280;3876;42.204;24.686;2022-12-18T10:32:14;100532.22;;;10.46;100.00
7668;BME280;3876;42.204;24.686;2022-12-18T10:34:46;100532.22;;;10.46;100.00
7668;BME280;3876;42.204;24.686;2022-12-18T10:37:16;100538.97;;;10.50;100.00
7668;BME280;3876;42.204;24.686;2022-12-18T10:39:46;100540.72;;;10.50;100.00
7668;BME280;3876;42.204;24.686;2022-12-18T10:42:17;100543.28;;;10.50;100.00
7668;BME280;3876;42.204;24.686;2022-12-18T10:44:45;100544.09;;;10.52;100.00
7668;BME280;3876;42.204;24.686;2022-12-18T10:47:15;100544.09;;;10.50;100.00
7668;BME280;3876;42.204;24.686;2022-12-18T10:49:48;100556.84;;;10.57;100.00
7668;BME280;3876;42.204;24.686;2022-12-18T10:52:18;100557.72;;;10.56;100.00
7668;BME280;3876;42.204;24.686;2022-12-18T10:54:52;100554.41;;;10.47;100.00
7668;BME280;3876;42.204;24.686;2022-12-18T10:57:34;100549.31;;;10.44;100.00
7668;BME280;3876;42.204;24.686;2022-12-18T11:00:22;100562.94;;;10.49;100.00
7668;BME280;3876;42.204;24.686;2022-12-18T11:02:50;100563.78;;;10.47;100.00
7668;BME280;3876;42.204;24.686;2022-12-18T11:05:27;100559.63;;;10.38;100.00
7668;BME280;3876;42.204;24.686;2022-12-18T11:07:55;100567.34;;;10.37;100.00
7668;BME280;3876;42.204;24.686;2022-12-18T11:10:28;100561.41;;;10.33;100.00
7668;BME280;3876;42.204;24.686;2022-12-18T11:12:55;100555.50;;;10.27;100.00
7668;BME280;3876;42.204;24.686;2022-12-18T11:15:26;100568.31;;;10.25;100.00
7668;BME280;3876;42.204;24.686;2022-12-18T11:17:55;100565.75;;;10.25;100.00
7668;BME280;3876;42.204;24.686;2022-12-18T11:20:30;100563.28;;;10.16;100.00
7668;BME280;3876;42.204;24.686;2022-12-18T11:22:59;100566.66;;;10.18;100.00
7668;BME280;3876;42.204;24.686;2022-12-18T11:25:30;100561.56;;;10.12;100.00
7668;BME280;3876;42.204;24.686;2022-12-18T11:28:00;100571.06;;;10.04;100.00
7668;BME280;3876;42.204;24.686;2022-12-18T11:30:29;100567.72;;;9.97;100.00
7668;BME280;3876;42.204;24.686;2022-12-18T11:33:01;100570.28;;;9.97;100.00
7668;BME280;3876;42.204;24.686;2022-12-18T11:35:39;100567.78;;;9.88;100.00
7668;BME280;3876;42.204;24.686;2022-12-18T11:38:18;100569.47;;;9.89;100.00
7668;BME280;3876;42.204;24.686;2022-12-18T11:40:53;100572.88;;;9.90;100.00
7668;BME280;3876;42.204;24.686;2022-12-18T11:43:27;100572.06;;;9.88;100.00
7668;BME280;3876;42.204;24.686;2022-12-18T11:45:56;100579.75;;;9.88;100.00
7668;BME280;3876;42.204;24.686;2022-12-18T11:48:29;100577.13;;;9.94;100.00
7668;BME280;3876;42.204;24.686;2022-12-18T11:50:58;100579.63;;;9.98;100.00
7668;BME280;3876;42.204;24.686;2022-12-18T11:53:26;100582.19;;;10.00;100.00
7668;BME280;3876;42.204;24.686;2022-12-18T11:56:04;100580.47;;;10.02;100.00
7668;BME280;3876;42.204;24.686;2022-12-18T11:58:59;100587.25;;;10.06;100.00
7668;BME280;3876;42.204;24.686;2022-12-18T12:01:39;100584.69;;;10.06;100.00
7668;BME280;3876;42.204;24.686;2022-12-18T12:07:18;100583.88;;;10.04;100.00
7668;BME280;3876;42.204;24.686;2022-12-18T12:09:56;100583.88;;;10.04;100.00
7668;BME280;3876;42.204;24.686;2022-12-18T12:12:35;100583.88;;;10.04;100.00
7668;BME280;3876;42.204;24.686;2022-12-18T12:15:19;100578.72;;;10.06;100.00
7668;BME280;3876;42.204;24.686;2022-12-18T12:17:53;100584.66;;;10.11;100.00
7668;BME280;3876;42.204;24.686;2022-12-18T12:20:33;100583.78;;;10.13;100.00
7668;BME280;3876;42.204;24.686;2022-12-18T12:23:12;100580.38;;;10.17;100.00
7668;BME280;3876;42.204;24.686;2022-12-18T12:25:46;100582.03;;;10.18;100.00
7668;BME280;3876;42.204;24.686;2022-12-18T12:28:23;100582.88;;;10.22;100.00
7668;BME280;3876;42.204;24.686;2022-12-18T12:31:03;100590.59;;;10.20;100.00
7668;BME280;3876;42.204;24.686;2022-12-18T12:33:42;100595.59;;;10.32;100.00
7668;BME280;3876;42.204;24.686;2022-12-18T12:36:18;100599.72;;;10.45;100.00
7668;BME280;3876;42.204;24.686;2022-12-18T12:38:50;100611.72;;;10.40;100.00
7668;BME280;3876;42.204;24.686;2022-12-18T12:41:21;100616.06;;;10.35;100.00
7668;BME280;3876;42.204;24.686;2022-12-18T12:44:14;100621.28;;;10.25;100.00
7668;BME280;3876;42.204;24.686;2022-12-18T12:46:43;100611.94;;;10.21;100.00
7668;BME280;3876;42.204;24.686;2022-12-18T12:49:12;100618.75;;;10.23;100.00
7668;BME280;3876;42.204;24.686;2022-12-18T12:51:43;100637.53;;;10.22;100.00
7668;BME280;3876;42.204;24.686;2022-12-18T12:54:16;100623.97;;;10.10;100.00
7668;BME280;3876;42.204;24.686;2022-12-18T12:56:50;100638.44;;;10.15;100.00
7668;BME280;3876;42.204;24.686;2022-12-18T12:59:28;100643.56;;;10.12;100.00
7668;BME280;3876;42.204;24.686;2022-12-18T13:02:04;100650.41;;;10.13;100.00
7668;BME280;3876;42.204;24.686;2022-12-18T13:04:37;100653.81;;;10.15;100.00
7668;BME280;3876;42.204;24.686;2022-12-18T13:07:11;100652.97;;;10.12;100.00
7668;BME280;3876;42.204;24.686;2022-12-18T13:10:22;100653.84;;;10.09;100.00
7668;BME280;3876;42.204;24.686;2022-12-18T13:12:58;100659.03;;;10.03;100.00
7668;BME280;3876;42.204;24.686;2022-12-18T13:15:30;100656.47;;;10.03;100.00